sensor_id;sensor_type;location;lat;lon;timestamp;P1;durP1;ratioP1;P2;durP2;ratioP2
23400;SDS011;11873;49.300;8.920;2022-09-29T00:02:17;2.63;;;2.30;;
23400;SDS011;11873;49.300;8.920;2022-09-29T00:07:17;4.30;;;2.60;;
23400;SDS011;11873;49.300;8.920;2022-09-29T00:12:17;3.57;;;2.47;;
23400;SDS011;11873;49.300;8.920;2022-09-29T00:17:17;3.70;;;2.73;;
23400;SDS011;11873;49.300;8.920;2022-09-29T00:22:17;3.43;;;2.70;;
23400;SDS011;11873;49.300;8.920;2022-09-29T00:27:18;3.60;;;2.80;;
23400;SDS011;11873;49.300;8.920;2022-09-29T00:32:18;3.67;;;3.20;;
23400;SDS011;11873;49.300;8.920;2022-09-29T00:37:18;5.53;;;4.60;;
23400;SDS011;11873;49.300;8.920;2022-09-29T00:42:19;3.70;;;2.60;;
23400;SDS011;11873;49.300;8.920;2022-09-29T00:47:19;2.83;;;2.50;;
23400;SDS011;11873;49.300;8.920;2022-09-29T00:52:24;3.93;;;2.47;;
23400;SDS011;11873;49.300;8.920;2022-09-29T00:57:27;2.97;;;2.73;;
23400;SDS011;11873;49.300;8.920;2022-09-29T01:02:28;3.13;;;2.23;;
23400;SDS011;11873;49.300;8.920;2022-09-29T01:07:30;2.67;;;2.47;;
23400;SDS011;11873;49.300;8.920;2022-09-29T01:12:31;2.87;;;2.67;;
23400;SDS011;11873;49.300;8.920;2022-09-29T01:17:31;3.77;;;2.80;;
23400;SDS011;11873;49.300;8.920;2022-09-29T01:22:39;5.57;;;2.93;;
23400;SDS011;11873;49.300;8.920;2022-09-29T01:43:24;4.03;;;2.67;;
23400;SDS011;11873;49.300;8.920;2022-09-29T01:48:28;3.57;;;2.47;;
23400;SDS011;11873;49.300;8.920;2022-09-29T01:53:33;3.87;;;2.20;;
23400;SDS011;11873;49.300;8.920;2022-09-29T01:58:36;2.43;;;2.13;;
23400;SDS011;11873;49.300;8.920;2022-09-29T02:03:40;3.40;;;2.47;;
23400;SDS011;11873;49.300;8.920;2022-09-29T02:08:51;2.70;;;2.50;;
23400;SDS011;11873;49.300;8.920;2022-09-29T02:14:00;5.27;;;2.97;;
23400;SDS011;11873;49.300;8.920;2022-09-29T02:24:05;3.20;;;2.40;;
23400;SDS011;11873;49.300;8.920;2022-09-29T02:29:05;3.00;;;2.17;;
23400;SDS011;11873;49.300;8.920;2022-09-29T02:34:07;4.60;;;3.00;;
23400;SDS011;11873;49.300;8.920;2022-09-29T02:54:55;3.10;;;1.90;;
23400;SDS011;11873;49.300;8.920;2022-09-29T03:04:58;4.20;;;2.10;;
23400;SDS011;11873;49.300;8.920;2022-09-29T03:09:59;4.00;;;2.20;;
23400;SDS011;11873;49.300;8.920;2022-09-29T03:14:59;8.53;;;5.57;;
23400;SDS011;11873;49.300;8.920;2022-09-29T03:19:59;2.60;;;1.90;;
23400;SDS011;11873;49.300;8.920;2022-09-29T03:25:00;3.60;;;2.20;;
23400;SDS011;11873;49.300;8.920;2022-09-29T03:30:00;2.62;;;2.42;;
23400;SDS011;11873;49.300;8.920;2022-09-29T03:35:00;2.43;;;2.27;;
23400;SDS011;11873;49.300;8.920;2022-09-29T03:40:01;2.00;;;1.80;;
23400;SDS011;11873;49.300;8.920;2022-09-29T03:45:01;3.53;;;2.53;;
23400;SDS011;11873;49.300;8.920;2022-09-29T03:50:01;3.20;;;2.90;;
23400;SDS011;11873;49.300;8.920;2022-09-29T03:55:01;4.83;;;3.67;;
23400;SDS011;11873;49.300;8.920;2022-09-29T04:00:02;4.73;;;2.97;;
23400;SDS011;11873;49.300;8.920;2022-09-29T04:05:03;3.87;;;3.30;;
23400;SDS011;11873;49.300;8.920;2022-09-29T04:10:03;3.87;;;3.17;;
23400;SDS011;11873;49.300;8.920;2022-09-29T04:15:03;3.57;;;3.30;;
23400;SDS011;11873;49.300;8.920;2022-09-29T04:20:04;4.30;;;2.63;;
23400;SDS011;11873;49.300;8.920;2022-09-29T04:25:04;3.53;;;3.23;;
23400;SDS011;11873;49.300;8.920;2022-09-29T04:30:05;3.50;;;1.93;;
23400;SDS011;11873;49.300;8.920;2022-09-29T04:35:06;2.93;;;2.53;;
23400;SDS011;11873;49.300;8.920;2022-09-29T04:40:06;3.77;;;2.30;;
23400;SDS011;11873;49.300;8.920;2022-09-29T04:45:06;2.57;;;2.37;;
23400;SDS011;11873;49.300;8.920;2022-09-29T04:50:07;2.47;;;2.20;;
23400;SDS011;11873;49.300;8.920;2022-09-29T04:55:07;2.87;;;2.57;;
23400;SDS011;11873;49.300;8.920;2022-09-29T05:00:08;3.03;;;2.20;;
23400;SDS011;11873;49.300;8.920;2022-09-29T05:05:09;6.50;;;3.37;;
23400;SDS011;11873;49.300;8.920;2022-09-29T05:10:09;3.20;;;2.90;;
23400;SDS011;11873;49.300;8.920;2022-09-29T05:15:09;3.23;;;2.37;;
23400;SDS011;11873;49.300;8.920;2022-09-29T05:20:10;3.53;;;2.80;;
23400;SDS011;11873;49.300;8.920;2022-09-29T05:25:10;8.30;;;5.63;;
23400;SDS011;11873;49.300;8.920;2022-09-29T05:30:10;7.13;;;3.23;;
23400;SDS011;11873;49.300;8.920;2022-09-29T05:35:11;4.67;;;2.60;;
23400;SDS011;11873;49.300;8.920;2022-09-29T05:40:11;15.27;;;10.30;;
23400;SDS011;11873;49.300;8.920;2022-09-29T05:45:11;9.00;;;5.77;;
23400;SDS011;11873;49.300;8.920;2022-09-29T05:50:11;3.10;;;2.50;;
23400;SDS011;11873;49.300;8.920;2022-09-29T05:55:12;4.53;;;2.80;;
23400;SDS011;11873;49.300;8.920;2022-09-29T06:00:12;2.97;;;2.77;;
23400;SDS011;11873;49.300;8.920;2022-09-29T06:05:12;2.70;;;2.50;;
23400;SDS011;11873;49.300;8.920;2022-09-29T06:10:12;4.13;;;2.60;;
23400;SDS011;11873;49.300;8.920;2022-09-29T06:15:12;7.17;;;3.10;;
23400;SDS011;11873;49.300;8.920;2022-09-29T06:20:13;6.85;;;4.00;;
23400;SDS011;11873;49.300;8.920;2022-09-29T06:25:13;6.30;;;4.33;;
23400;SDS011;11873;49.300;8.920;2022-09-29T06:30:13;4.73;;;3.50;;
23400;SDS011;11873;49.300;8.920;2022-09-29T06:35:14;4.37;;;3.60;;
23400;SDS011;11873;49.300;8.920;2022-09-29T06:40:14;7.80;;;4.80;;
23400;SDS011;11873;49.300;8.920;2022-09-29T06:45:16;6.50;;;3.37;;
23400;SDS011;11873;49.300;8.920;2022-09-29T06:50:16;2.97;;;2.77;;
23400;SDS011;11873;49.300;8.920;2022-09-29T06:55:16;5.10;;;2.40;;
23400;SDS011;11873;49.300;8.920;2022-09-29T07:00:19;3.20;;;2.50;;
23400;SDS011;11873;49.300;8.920;2022-09-29T07:05:19;5.43;;;3.03;;
23400;SDS011;11873;49.300;8.920;2022-09-29T07:10:20;3.20;;;2.90;;
23400;SDS011;11873;49.300;8.920;2022-09-29T07:15:20;2.42;;;2.22;;
23400;SDS011;11873;49.300;8.920;2022-09-29T07:20:20;3.00;;;2.40;;
23400;SDS011;11873;49.300;8.920;2022-09-29T07:25:20;2.97;;;2.73;;
23400;SDS011;11873;49.300;8.920;2022-09-29T07:30:20;4.60;;;2.70;;
23400;SDS011;11873;49.300;8.920;2022-09-29T07:35:28;5.20;;;2.77;;
23400;SDS011;11873;49.300;8.920;2022-09-29T07:40:28;3.83;;;2.63;;
23400;SDS011;11873;49.300;8.920;2022-09-29T07:45:28;4.37;;;2.47;;
23400;SDS011;11873;49.300;8.920;2022-09-29T07:50:43;0.93;;;0.93;;
23400;SDS011;11873;49.300;8.920;2022-09-29T07:55:44;5.37;;;3.13;;
23400;SDS011;11873;49.300;8.920;2022-09-29T08:00:44;3.23;;;2.93;;
23400;SDS011;11873;49.300;8.920;2022-09-29T08:05:44;4.40;;;2.57;;
23400;SDS011;11873;49.300;8.920;2022-09-29T08:10:48;4.53;;;3.00;;
23400;SDS011;11873;49.300;8.920;2022-09-29T08:15:48;6.43;;;2.87;;
23400;SDS011;11873;49.300;8.920;2022-09-29T08:20:48;2.47;;;2.27;;
23400;SDS011;11873;49.300;8.920;2022-09-29T08:25:49;3.20;;;2.87;;
23400;SDS011;11873;49.300;8.920;2022-09-29T08:30:49;4.47;;;3.43;;
23400;SDS011;11873;49.300;8.920;2022-09-29T08:35:56;3.67;;;2.50;;
23400;SDS011;11873;49.300;8.920;2022-09-29T08:40:56;3.07;;;2.77;;
23400;SDS011;11873;49.300;8.920;2022-09-29T08:46:03;4.50;;;3.23;;
23400;SDS011;11873;49.300;8.920;2022-09-29T08:51:05;5.13;;;3.17;;
23400;SDS011;11873;49.300;8.920;2022-09-29T08:56:08;6.80;;;3.40;;
23400;SDS011;11873;49.300;8.920;2022-09-29T09:06:35;4.03;;;2.50;;
23400;SDS011;11873;49.300;8.920;2022-09-29T09:11:48;3.83;;;2.50;;
23400;SDS011;11873;49.300;8.920;2022-09-29T09:17:15;3.27;;;2.63;;
23400;SDS011;11873;49.300;8.920;2022-09-29T09:27:12;3.13;;;2.27;;
23400;SDS011;11873;49.300;8.920;2022-09-29T09:32:34;2.53;;;2.33;;
23400;SDS011;11873;49.300;8.920;2022-09-29T09:37:38;3.90;;;2.60;;
23400;SDS011;11873;49.300;8.920;2022-09-29T09:42:40;3.57;;;2.47;;
23400;SDS011;11873;49.300;8.920;2022-09-29T09:47:46;5.23;;;2.83;;
23400;SDS011;11873;49.300;8.920;2022-09-29T10:02:54;3.57;;;2.47;;
23400;SDS011;11873;49.300;8.920;2022-09-29T10:07:54;2.27;;;1.93;;
23400;SDS011;11873;49.300;8.920;2022-09-29T10:12:56;5.77;;;2.30;;
23400;SDS011;11873;49.300;8.920;2022-09-29T10:18:19;2.60;;;2.23;;
23400;SDS011;11873;49.300;8.920;2022-09-29T10:23:28;2.33;;;2.07;;
23400;SDS011;11873;49.300;8.920;2022-09-29T10:28:36;1.97;;;1.83;;
23400;SDS011;11873;49.300;8.920;2022-09-29T10:33:37;3.77;;;2.37;;
23400;SDS011;11873;49.300;8.920;2022-09-29T10:38:45;2.57;;;2.00;;
23400;SDS011;11873;49.300;8.920;2022-09-29T10:43:47;4.37;;;2.20;;
23400;SDS011;11873;49.300;8.920;2022-09-29T10:48:48;2.03;;;1.90;;
23400;SDS011;11873;49.300;8.920;2022-09-29T10:54:06;2.73;;;2.07;;
23400;SDS011;11873;49.300;8.920;2022-09-29T10:59:09;2.40;;;2.03;;
23400;SDS011;11873;49.300;8.920;2022-09-29T11:04:17;2.10;;;1.60;;
23400;SDS011;11873;49.300;8.920;2022-09-29T11:14:26;2.80;;;1.97;;
23400;SDS011;11873;49.300;8.920;2022-09-29T11:19:28;2.27;;;2.00;;
23400;SDS011;11873;49.300;8.920;2022-09-29T11:24:38;2.80;;;1.83;;
23400;SDS011;11873;49.300;8.920;2022-09-29T11:39:51;1.97;;;1.77;;
23400;SDS011;11873;49.300;8.920;2022-09-29T12:00:20;4.00;;;1.93;;
23400;SDS011;11873;49.300;8.920;2022-09-29T12:15:50;5.17;;;1.67;;
23400;SDS011;11873;49.300;8.920;2022-09-29T12:20:52;3.23;;;1.70;;
23400;SDS011;11873;49.300;8.920;2022-09-29T12:26:03;1.70;;;1.60;;
23400;SDS011;11873;49.300;8.920;2022-09-29T12:31:08;2.03;;;1.30;;
23400;SDS011;11873;49.300;8.920;2022-09-29T12:36:24;2.23;;;1.20;;
23400;SDS011;11873;49.300;8.920;2022-09-29T12:41:27;2.57;;;1.47;;
23400;SDS011;11873;49.300;8.920;2022-09-29T12:46:40;2.20;;;1.10;;
23400;SDS011;11873;49.300;8.920;2022-09-29T12:51:41;1.43;;;1.17;;
23400;SDS011;11873;49.300;8.920;2022-09-29T13:27:40;1.27;;;1.17;;
23400;SDS011;11873;49.300;8.920;2022-09-29T13:32:42;0.90;;;0.90;;
23400;SDS011;11873;49.300;8.920;2022-09-29T13:37:45;2.40;;;1.10;;
23400;SDS011;11873;49.300;8.920;2022-09-29T13:42:47;1.30;;;1.20;;
23400;SDS011;11873;49.300;8.920;2022-09-29T13:47:48;2.53;;;1.37;;
23400;SDS011;11873;49.300;8.920;2022-09-29T13:52:49;2.53;;;1.50;;
23400;SDS011;11873;49.300;8.920;2022-09-29T13:57:50;1.50;;;1.40;;
23400;SDS011;11873;49.300;8.920;2022-09-29T14:03:00;1.67;;;1.10;;
23400;SDS011;11873;49.300;8.920;2022-09-29T14:08:22;1.40;;;1.30;;
23400;SDS011;11873;49.300;8.920;2022-09-29T14:13:23;1.30;;;1.20;;
23400;SDS011;11873;49.300;8.920;2022-09-29T14:18:37;1.57;;;1.33;;
23400;SDS011;11873;49.300;8.920;2022-09-29T14:28:42;2.83;;;1.60;;
23400;SDS011;11873;49.300;8.920;2022-09-29T14:33:42;2.40;;;1.50;;
23400;SDS011;11873;49.300;8.920;2022-09-29T14:38:43;1.50;;;1.40;;
23400;SDS011;11873;49.300;8.920;2022-09-29T14:43:48;2.33;;;1.37;;
23400;SDS011;11873;49.300;8.920;2022-09-29T14:54:17;1.63;;;1.33;;
23400;SDS011;11873;49.300;8.920;2022-09-29T15:00:08;2.27;;;1.60;;
23400;SDS011;11873;49.300;8.920;2022-09-29T15:04:45;3.03;;;1.60;;
23400;SDS011;11873;49.300;8.920;2022-09-29T15:09:49;1.73;;;1.40;;
23400;SDS011;11873;49.300;8.920;2022-09-29T15:14:50;3.50;;;1.30;;
23400;SDS011;11873;49.300;8.920;2022-09-29T15:25:38;2.27;;;1.63;;
23400;SDS011;11873;49.300;8.920;2022-09-29T15:30:20;2.40;;;1.30;;
23400;SDS011;11873;49.300;8.920;2022-09-29T15:35:22;1.87;;;1.40;;
23400;SDS011;11873;49.300;8.920;2022-09-29T15:40:24;3.07;;;1.87;;
23400;SDS011;11873;49.300;8.920;2022-09-29T15:45:25;3.00;;;1.37;;
23400;SDS011;11873;49.300;8.920;2022-09-29T15:50:26;2.60;;;1.50;;
23400;SDS011;11873;49.300;8.920;2022-09-29T15:55:26;1.67;;;1.37;;
23400;SDS011;11873;49.300;8.920;2022-09-29T16:05:37;1.57;;;1.47;;
23400;SDS011;11873;49.300;8.920;2022-09-29T16:10:40;3.40;;;1.40;;
23400;SDS011;11873;49.300;8.920;2022-09-29T16:15:42;5.90;;;3.17;;
23400;SDS011;11873;49.300;8.920;2022-09-29T16:20:43;5.60;;;2.60;;
23400;SDS011;11873;49.300;8.920;2022-09-29T16:25:43;2.20;;;1.83;;
23400;SDS011;11873;49.300;8.920;2022-09-29T16:30:44;3.93;;;1.80;;
23400;SDS011;11873;49.300;8.920;2022-09-29T16:36:07;2.50;;;1.70;;
23400;SDS011;11873;49.300;8.920;2022-09-29T16:46:08;6.03;;;3.50;;
23400;SDS011;11873;49.300;8.920;2022-09-29T16:51:18;5.53;;;3.30;;
23400;SDS011;11873;49.300;8.920;2022-09-29T16:56:28;4.47;;;3.20;;
23400;SDS011;11873;49.300;8.920;2022-09-29T17:01:29;4.17;;;2.20;;
23400;SDS011;11873;49.300;8.920;2022-09-29T17:06:29;2.97;;;2.10;;
23400;SDS011;11873;49.300;8.920;2022-09-29T17:11:29;1.70;;;1.60;;
23400;SDS011;11873;49.300;8.920;2022-09-29T17:16:30;1.63;;;1.53;;
23400;SDS011;11873;49.300;8.920;2022-09-29T17:21:31;2.53;;;1.87;;
23400;SDS011;11873;49.300;8.920;2022-09-29T17:26:36;2.00;;;1.90;;
23400;SDS011;11873;49.300;8.920;2022-09-29T17:31:37;4.33;;;2.43;;
23400;SDS011;11873;49.300;8.920;2022-09-29T17:36:37;2.80;;;2.50;;
23400;SDS011;11873;49.300;8.920;2022-09-29T17:41:37;3.70;;;3.40;;
23400;SDS011;11873;49.300;8.920;2022-09-29T17:46:37;4.93;;;3.40;;
23400;SDS011;11873;49.300;8.920;2022-09-29T17:51:38;8.50;;;5.30;;
23400;SDS011;11873;49.300;8.920;2022-09-29T17:56:41;13.47;;;6.50;;
23400;SDS011;11873;49.300;8.920;2022-09-29T18:01:42;12.50;;;7.67;;
23400;SDS011;11873;49.300;8.920;2022-09-29T18:06:42;6.23;;;4.20;;
23400;SDS011;11873;49.300;8.920;2022-09-29T18:11:42;3.37;;;2.83;;
23400;SDS011;11873;49.300;8.920;2022-09-29T18:16:42;5.13;;;3.83;;
23400;SDS011;11873;49.300;8.920;2022-09-29T18:21:43;5.07;;;3.83;;
23400;SDS011;11873;49.300;8.920;2022-09-29T18:26:44;10.43;;;5.40;;
23400;SDS011;11873;49.300;8.920;2022-09-29T18:31:44;4.67;;;3.60;;
23400;SDS011;11873;49.300;8.920;2022-09-29T18:36:44;5.73;;;3.70;;
23400;SDS011;11873;49.300;8.920;2022-09-29T18:41:45;6.43;;;4.47;;
23400;SDS011;11873;49.300;8.920;2022-09-29T18:46:45;9.00;;;4.20;;
23400;SDS011;11873;49.300;8.920;2022-09-29T18:51:45;12.90;;;8.63;;
23400;SDS011;11873;49.300;8.920;2022-09-29T18:56:45;9.43;;;5.27;;
23400;SDS011;11873;49.300;8.920;2022-09-29T19:01:45;5.63;;;4.27;;
23400;SDS011;11873;49.300;8.920;2022-09-29T19:06:45;7.97;;;5.67;;
23400;SDS011;11873;49.300;8.920;2022-09-29T19:11:46;8.53;;;7.13;;
23400;SDS011;11873;49.300;8.920;2022-09-29T19:16:46;10.03;;;6.87;;
23400;SDS011;11873;49.300;8.920;2022-09-29T19:21:46;7.77;;;5.80;;
23400;SDS011;11873;49.300;8.920;2022-09-29T19:26:46;8.17;;;5.83;;
23400;SDS011;11873;49.300;8.920;2022-09-29T19:31:46;5.20;;;4.10;;
23400;SDS011;11873;49.300;8.920;2022-09-29T19:36:47;6.27;;;3.27;;
23400;SDS011;11873;49.300;8.920;2022-09-29T19:41:47;4.47;;;4.00;;
23400;SDS011;11873;49.300;8.920;2022-09-29T19:46:47;8.90;;;5.47;;
23400;SDS011;11873;49.300;8.920;2022-09-29T19:51:48;8.80;;;6.20;;
23400;SDS011;11873;49.300;8.920;2022-09-29T19:56:49;4.10;;;3.70;;
23400;SDS011;11873;49.300;8.920;2022-09-29T20:01:49;3.47;;;3.17;;
23400;SDS011;11873;49.300;8.920;2022-09-29T20:06:50;7.10;;;5.03;;
23400;SDS011;11873;49.300;8.920;2022-09-29T20:11:50;6.80;;;4.43;;
23400;SDS011;11873;49.300;8.920;2022-09-29T20:16:52;4.10;;;2.70;;
23400;SDS011;11873;49.300;8.920;2022-09-29T20:21:52;2.80;;;2.60;;
23400;SDS011;11873;49.300;8.920;2022-09-29T20:26:53;3.30;;;3.00;;
23400;SDS011;11873;49.300;8.920;2022-09-29T20:31:53;5.63;;;3.90;;
23400;SDS011;11873;49.300;8.920;2022-09-29T20:36:53;4.80;;;3.53;;
23400;SDS011;11873;49.300;8.920;2022-09-29T20:41:54;7.80;;;3.23;;
23400;SDS011;11873;49.300;8.920;2022-09-29T20:46:54;4.33;;;3.30;;
23400;SDS011;11873;49.300;8.920;2022-09-29T20:51:54;3.37;;;3.00;;
23400;SDS011;11873;49.300;8.920;2022-09-29T20:56:55;3.30;;;3.00;;
23400;SDS011;11873;49.300;8.920;2022-09-29T21:01:55;5.03;;;3.07;;
23400;SDS011;11873;49.300;8.920;2022-09-29T21:06:55;6.63;;;3.23;;
23400;SDS011;11873;49.300;8.920;2022-09-29T21:11:55;4.83;;;3.30;;
23400;SDS011;11873;49.300;8.920;2022-09-29T21:16:55;4.00;;;3.10;;
23400;SDS011;11873;49.300;8.920;2022-09-29T21:21:55;7.00;;;3.03;;
23400;SDS011;11873;49.300;8.920;2022-09-29T21:26:56;7.23;;;5.03;;
23400;SDS011;11873;49.300;8.920;2022-09-29T21:31:56;16.03;;;7.80;;
23400;SDS011;11873;49.300;8.920;2022-09-29T21:36:56;6.07;;;4.83;;
23400;SDS011;11873;49.300;8.920;2022-09-29T21:41:56;12.30;;;5.60;;
23400;SDS011;11873;49.300;8.920;2022-09-29T21:46:56;6.13;;;4.53;;
23400;SDS011;11873;49.300;8.920;2022-09-29T21:51:57;6.20;;;4.93;;
23400;SDS011;11873;49.300;8.920;2022-09-29T21:56:57;12.03;;;6.53;;
23400;SDS011;11873;49.300;8.920;2022-09-29T22:01:57;7.17;;;4.27;;
23400;SDS011;11873;49.300;8.920;2022-09-29T22:06:57;4.90;;;3.30;;
23400;SDS011;11873;49.300;8.920;2022-09-29T22:11:57;4.97;;;3.73;;
23400;SDS011;11873;49.300;8.920;2022-09-29T22:16:58;4.70;;;3.83;;
23400;SDS011;11873;49.300;8.920;2022-09-29T22:21:58;5.73;;;3.63;;
23400;SDS011;11873;49.300;8.920;2022-09-29T22:26:58;5.17;;;3.80;;
23400;SDS011;11873;49.300;8.920;2022-09-29T22:31:58;4.53;;;3.50;;
23400;SDS011;11873;49.300;8.920;2022-09-29T22:36:58;3.40;;;3.07;;
23400;SDS011;11873;49.300;8.920;2022-09-29T22:41:58;7.53;;;3.90;;
23400;SDS011;11873;49.300;8.920;2022-09-29T22:46:59;3.27;;;2.97;;
23400;SDS011;11873;49.300;8.920;2022-09-29T22:51:59;4.33;;;3.13;;
23400;SDS011;11873;49.300;8.920;2022-09-29T22:56:59;3.63;;;3.20;;
23400;SDS011;11873;49.300;8.920;2022-09-29T23:01:59;5.47;;;2.90;;
23400;SDS011;11873;49.300;8.920;2022-09-29T23:06:59;3.87;;;3.13;;
23400;SDS011;11873;49.300;8.920;2022-09-29T23:12:00;3.17;;;2.83;;
23400;SDS011;11873;49.300;8.920;2022-09-29T23:17:00;4.87;;;3.33;;
23400;SDS011;11873;49.300;8.920;2022-09-29T23:22:00;4.30;;;3.47;;
23400;SDS011;11873;49.300;8.920;2022-09-29T23:27:00;4.70;;;2.87;;
23400;SDS011;11873;49.300;8.920;2022-09-29T23:32:00;4.83;;;2.90;;
23400;SDS011;11873;49.300;8.920;2022-09-29T23:37:01;4.53;;;3.60;;
23400;SDS011;11873;49.300;8.920;2022-09-29T23:42:01;3.37;;;3.07;;
23400;SDS011;11873;49.300;8.920;2022-09-29T23:47:01;2.90;;;2.53;;
23400;SDS011;11873;49.300;8.920;2022-09-29T23:52:02;3.23;;;2.93;;
23400;SDS011;11873;49.300;8.920;2022-09-29T23:57:02;5.47;;;3.10;;
